createdAt,value
2023-03-29T00:00:37.510Z,225.20
2023-03-29T00:03:18.279Z,211.60
2023-03-29T00:05:46.554Z,236.10
2023-03-29T00:08:14.700Z,321.50
2023-03-29T00:10:42.822Z,308.90
2023-03-29T00:13:10.922Z,232.90
2023-03-29T00:15:38.852Z,217.60
2023-03-29T00:18:06.782Z,174.60
2023-03-29T00:20:34.808Z,164.40
2023-03-29T00:23:02.706Z,156.70
2023-03-29T00:25:30.475Z,348.40
2023-03-29T00:27:58.417Z,290.90
2023-03-29T00:30:26.362Z,184.70
2023-03-29T00:32:54.454Z,169.80
2023-03-29T00:35:22.397Z,166.30
2023-03-29T00:37:51.091Z,156.30
2023-03-29T00:40:19.925Z,153.20
2023-03-29T00:42:47.858Z,148.80
2023-03-29T00:45:22.994Z,139.80
2023-03-29T00:48:03.091Z,126.70
2023-03-29T00:50:39.929Z,152.30
2023-03-29T00:53:13.320Z,206.80
2023-03-29T00:55:48.038Z,217.30
2023-03-29T00:58:21.350Z,184.80
2023-03-29T01:00:57.962Z,260.40
2023-03-29T01:03:30.376Z,211.60
2023-03-29T01:06:04.583Z,208.80
2023-03-29T01:08:38.032Z,142.90
2023-03-29T01:11:17.863Z,148.30
2023-03-29T01:14:15.368Z,121.40
2023-03-29T01:16:43.639Z,127.70
2023-03-29T01:19:15.775Z,110.60
2023-03-29T01:21:51.675Z,104.80
2023-03-29T01:24:38.245Z,110.10
2023-03-29T01:27:37.996Z,124.90
2023-03-29T01:30:13.298Z,139.20
2023-03-29T01:32:51.272Z,179.10
2023-03-29T01:35:32.736Z,168.90
2023-03-29T01:38:13.458Z,161.10
2023-03-29T01:40:42.197Z,169.90
2023-03-29T01:43:34.343Z,174.90
2023-03-29T01:46:11.621Z,171.10
2023-03-29T01:48:49.974Z,154.10
2023-03-29T01:51:26.535Z,129.20
2023-03-29T01:54:01.474Z,131.00
2023-03-29T01:56:36.968Z,116.00
2023-03-29T01:59:11.242Z,114.50
2023-03-29T02:01:49.418Z,102.00
2023-03-29T02:04:29.146Z,98.80
2023-03-29T02:07:00.893Z,78.30
2023-03-29T02:09:30.435Z,89.00
2023-03-29T02:12:00.979Z,72.00
2023-03-29T02:14:30.560Z,75.00
2023-03-29T02:17:32.404Z,71.50
2023-03-29T02:20:23.470Z,84.00
2023-03-29T02:23:18.224Z,112.10
2023-03-29T02:25:47.882Z,95.70
2023-03-29T02:28:17.306Z,89.70
2023-03-29T02:31:15.084Z,76.30
2023-03-29T02:33:57.283Z,66.60
2023-03-29T02:36:40.867Z,59.60
2023-03-29T02:39:13.839Z,50.50
2023-03-29T02:41:45.944Z,50.80
2023-03-29T02:44:21.696Z,46.80
2023-03-29T02:46:53.160Z,49.70
2023-03-29T02:49:21.681Z,40.80
2023-03-29T02:51:53.738Z,45.20
2023-03-29T02:54:26.007Z,44.70
2023-03-29T02:57:00.401Z,44.90
2023-03-29T02:59:30.131Z,50.50
2023-03-29T03:01:58.483Z,67.20
2023-03-29T03:04:28.161Z,64.90
2023-03-29T03:06:56.323Z,71.50
2023-03-29T03:09:24.302Z,62.80
2023-03-29T03:11:53.857Z,73.00
2023-03-29T03:14:23.079Z,58.20
2023-03-29T03:16:52.923Z,63.20
2023-03-29T03:19:21.596Z,64.40
2023-03-29T03:21:51.166Z,58.40
2023-03-29T03:24:19.197Z,51.70
2023-03-29T03:26:47.222Z,45.30
2023-03-29T03:29:16.405Z,46.60
2023-03-29T03:32:04.418Z,41.70
2023-03-29T03:35:12.453Z,34.80
2023-03-29T03:37:41.579Z,53.70
2023-03-29T03:40:11.799Z,538.10
2023-03-29T03:42:41.326Z,654.30
2023-03-29T03:45:10.719Z,356.90
2023-03-29T03:47:47.350Z,115.40
2023-03-29T03:50:24.490Z,73.40
2023-03-29T03:52:52.872Z,52.20
2023-03-29T03:55:22.150Z,57.90
2023-03-29T03:58:17.900Z,81.00
2023-03-29T04:00:48.986Z,50.10
2023-03-29T04:03:26.526Z,63.00
2023-03-29T04:05:54.644Z,74.90
2023-03-29T04:08:25.026Z,43.00
2023-03-29T04:11:32.090Z,31.50
2023-03-29T04:14:00.626Z,34.10
2023-03-29T04:16:44.978Z,44.40
2023-03-29T04:19:36.147Z,59.20
2023-03-29T04:22:04.016Z,47.50
2023-03-29T04:24:32.043Z,35.70
2023-03-29T04:27:18.536Z,29.60
2023-03-29T04:29:46.966Z,33.10
2023-03-29T04:32:27.697Z,32.00
2023-03-29T04:35:09.355Z,55.10
2023-03-29T04:37:40.506Z,56.80
2023-03-29T04:40:14.076Z,64.00
2023-03-29T04:43:00.165Z,38.90
2023-03-29T04:45:29.803Z,36.20
2023-03-29T04:48:08.466Z,44.90
2023-03-29T04:50:37.634Z,59.40
2023-03-29T04:53:06.043Z,86.40
2023-03-29T04:55:33.977Z,52.30
2023-03-29T04:58:04.991Z,44.10
2023-03-29T05:00:38.040Z,32.10
2023-03-29T05:03:24.069Z,33.00
2023-03-29T05:08:40.072Z,46.40
2023-03-29T05:11:21.953Z,216.60
2023-03-29T05:13:49.935Z,188.30
2023-03-29T05:16:18.799Z,124.20
2023-03-29T05:18:46.649Z,144.70
2023-03-29T05:21:15.687Z,144.60
2023-03-29T05:23:45.002Z,98.90
2023-03-29T05:26:31.685Z,52.00
2023-03-29T05:28:59.503Z,56.70
2023-03-29T05:31:28.311Z,70.60
2023-03-29T05:33:56.627Z,45.70
2023-03-29T05:36:24.873Z,47.00
2023-03-29T05:38:52.965Z,47.20
2023-03-29T05:41:22.821Z,44.00
2023-03-29T05:43:50.674Z,53.40
2023-03-29T05:46:19.579Z,47.90
2023-03-29T05:48:51.666Z,39.50
2023-03-29T05:51:24.264Z,47.40
2023-03-29T05:53:54.964Z,45.00
2023-03-29T05:56:22.873Z,41.10
2023-03-29T05:58:54.995Z,40.40
2023-03-29T06:01:27.264Z,34.70
2023-03-29T06:03:59.548Z,38.10
2023-03-29T06:06:37.765Z,41.40
2023-03-29T06:09:05.702Z,46.70
2023-03-29T06:11:40.842Z,53.30
2023-03-29T06:14:08.770Z,41.60
2023-03-29T06:16:42.859Z,45.60
2023-03-29T06:19:11.364Z,44.70
2023-03-29T06:21:39.494Z,40.90
2023-03-29T06:24:07.851Z,35.00
2023-03-29T06:26:40.490Z,34.20
2023-03-29T06:29:09.356Z,28.10
2023-03-29T06:31:40.907Z,26.40
2023-03-29T06:34:10.001Z,28.20
2023-03-29T06:37:04.207Z,27.80
2023-03-29T06:39:33.203Z,28.50
2023-03-29T06:42:22.723Z,26.00
2023-03-29T06:45:11.078Z,24.90
2023-03-29T06:47:41.179Z,32.90
2023-03-29T06:50:10.305Z,27.00
2023-03-29T06:52:46.255Z,27.70
2023-03-29T06:55:15.966Z,26.30
2023-03-29T06:57:44.447Z,26.30
2023-03-29T07:00:19.378Z,23.90
2023-03-29T07:03:06.942Z,23.50
2023-03-29T07:05:42.122Z,27.70
2023-03-29T07:08:14.251Z,23.50
2023-03-29T07:11:04.117Z,22.60
2023-03-29T07:13:49.220Z,26.40
2023-03-29T07:16:19.882Z,20.40
2023-03-29T07:19:08.994Z,19.90
2023-03-29T07:21:53.431Z,20.90
2023-03-29T07:24:23.421Z,22.20
2023-03-29T07:27:03.169Z,18.40
2023-03-29T07:29:33.338Z,24.80
2023-03-29T07:32:01.312Z,28.20
2023-03-29T07:34:44.757Z,54.40
2023-03-29T07:37:27.051Z,26.40
2023-03-29T07:39:56.882Z,27.10
2023-03-29T07:42:40.694Z,21.70
2023-03-29T07:45:11.374Z,22.70
2023-03-29T07:47:49.195Z,78.30
2023-03-29T07:50:18.148Z,34.00
2023-03-29T07:52:46.278Z,22.60
2023-03-29T07:55:14.852Z,77.30
2023-03-29T07:57:57.711Z,40.50
2023-03-29T08:00:26.074Z,27.70
2023-03-29T08:03:09.356Z,25.80
2023-03-29T08:05:41.177Z,42.40
2023-03-29T08:08:14.945Z,40.30
2023-03-29T08:10:53.686Z,34.80
2023-03-29T08:13:47.735Z,13.60
2023-03-29T08:16:18.468Z,30.60
2023-03-29T08:18:52.720Z,28.20
2023-03-29T08:21:21.777Z,22.40
2023-03-29T08:23:51.267Z,42.10
2023-03-29T08:26:26.946Z,43.20
2023-03-29T08:28:55.518Z,39.70
2023-03-29T08:31:24.299Z,30.90
2023-03-29T08:33:53.312Z,25.70
2023-03-29T08:36:40.530Z,24.30
2023-03-29T08:39:22.492Z,36.80
2023-03-29T08:42:19.287Z,43.00
2023-03-29T08:45:06.219Z,69.20
2023-03-29T08:47:43.302Z,56.70
2023-03-29T08:50:14.730Z,67.90
2023-03-29T08:53:01.086Z,42.60
2023-03-29T08:56:04.754Z,73.90
2023-03-29T08:58:52.642Z,52.90
2023-03-29T09:01:23.044Z,62.30
2023-03-29T09:04:13.120Z,94.10
2023-03-29T09:06:49.714Z,49.70
2023-03-29T09:09:31.658Z,51.20
2023-03-29T09:12:16.301Z,71.00
2023-03-29T09:15:21.610Z,69.80
2023-03-29T09:17:59.849Z,59.30
2023-03-29T09:20:41.204Z,34.30
2023-03-29T09:23:48.413Z,127.30
2023-03-29T09:26:47.691Z,58.40
2023-03-29T09:29:48.854Z,55.40
2023-03-29T09:32:22.561Z,23.20
2023-03-29T09:35:27.674Z,24.90
2023-03-29T09:37:57.828Z,60.20
2023-03-29T09:40:42.817Z,38.90
2023-03-29T09:43:22.107Z,18.60
2023-03-29T09:45:58.985Z,22.50
2023-03-29T09:48:29.763Z,13.40
2023-03-29T09:50:58.164Z,15.30
2023-03-29T09:53:26.644Z,34.90
2023-03-29T09:56:10.863Z,65.70
2023-03-29T09:58:47.000Z,20.70
2023-03-29T10:01:17.691Z,41.10
2023-03-29T10:03:52.557Z,45.40
2023-03-29T10:06:25.489Z,37.80
2023-03-29T10:11:33.399Z,39.80
2023-03-29T10:14:04.465Z,32.70
2023-03-29T10:16:46.530Z,21.20
2023-03-29T10:19:34.540Z,15.70
2023-03-29T10:22:08.129Z,9.10
2023-03-29T10:24:36.217Z,22.30
2023-03-29T10:27:09.797Z,14.90
2023-03-29T10:29:42.386Z,29.10
2023-03-29T10:32:34.682Z,22.60
2023-03-29T10:35:21.462Z,24.40
2023-03-29T10:37:53.192Z,41.00
2023-03-29T10:40:27.726Z,26.50
2023-03-29T10:43:11.435Z,22.50
2023-03-29T10:45:40.025Z,33.30
2023-03-29T10:48:16.157Z,24.00
2023-03-29T10:50:49.898Z,11.20
2023-03-29T10:53:25.070Z,11.40
2023-03-29T10:56:28.087Z,11.30
2023-03-29T10:59:23.011Z,21.00
2023-03-29T11:02:17.075Z,27.00
2023-03-29T11:05:06.036Z,16.30
2023-03-29T11:08:05.098Z,15.40
2023-03-29T11:11:07.492Z,25.00
2023-03-29T11:14:09.382Z,14.90
2023-03-29T11:16:51.120Z,22.80
2023-03-29T11:19:43.480Z,18.20
2023-03-29T11:22:36.688Z,23.70
2023-03-29T11:25:17.424Z,49.40
2023-03-29T11:28:00.893Z,35.00
2023-03-29T11:30:48.283Z,17.20
2023-03-29T11:33:28.053Z,23.30
2023-03-29T11:36:34.547Z,19.00
2023-03-29T11:39:35.778Z,16.20
2023-03-29T11:42:17.859Z,19.90
2023-03-29T11:44:48.620Z,14.80
2023-03-29T11:47:23.168Z,21.20
2023-03-29T11:49:57.911Z,19.20
2023-03-29T11:52:40.860Z,14.20
2023-03-29T11:55:15.422Z,21.10
2023-03-29T11:57:46.406Z,18.70
2023-03-29T12:00:46.758Z,21.20
2023-03-29T12:03:47.457Z,14.80
2023-03-29T12:07:00.094Z,12.20
2023-03-29T12:09:44.833Z,9.70
2023-03-29T12:12:17.884Z,12.80
2023-03-29T12:15:07.172Z,20.40
2023-03-29T12:17:42.610Z,18.30
2023-03-29T12:20:23.440Z,12.50
2023-03-29T12:22:51.883Z,15.20
2023-03-29T12:26:06.314Z,10.90
2023-03-29T12:29:28.676Z,62.00
2023-03-29T12:32:34.079Z,18.10
2023-03-29T12:35:49.617Z,12.80
2023-03-29T12:38:37.838Z,14.60
2023-03-29T12:41:24.971Z,14.30
2023-03-29T12:44:17.960Z,19.80
2023-03-29T12:46:59.844Z,19.70
2023-03-29T12:49:35.224Z,13.50
2023-03-29T12:52:16.695Z,13.20
2023-03-29T12:54:56.818Z,11.50
2023-03-29T12:57:43.227Z,15.80
2023-03-29T13:00:26.590Z,12.10
2023-03-29T13:03:20.360Z,14.70
2023-03-29T13:05:59.914Z,11.30
2023-03-29T13:08:41.086Z,12.20
2023-03-29T13:11:25.495Z,14.50
2023-03-29T13:13:53.683Z,16.60
2023-03-29T13:16:33.778Z,19.90
2023-03-29T13:19:34.593Z,16.50
2023-03-29T13:22:35.820Z,12.40
2023-03-29T13:25:10.247Z,22.70
2023-03-29T13:28:02.280Z,15.00
2023-03-29T13:30:45.291Z,14.40
2023-03-29T13:33:32.806Z,28.20
2023-03-29T13:36:33.102Z,17.70
2023-03-29T13:39:05.424Z,16.10
2023-03-29T13:41:39.317Z,16.10
2023-03-29T13:44:45.000Z,11.50
2023-03-29T13:47:19.158Z,12.20
2023-03-29T13:49:53.600Z,12.40
2023-03-29T13:52:29.253Z,8.60
2023-03-29T13:55:02.069Z,18.80
2023-03-29T13:57:55.284Z,15.40
2023-03-29T14:00:31.633Z,15.70
2023-03-29T14:03:04.317Z,17.40
2023-03-29T14:05:36.149Z,12.80
2023-03-29T14:08:19.011Z,14.00
2023-03-29T14:10:48.209Z,13.70
2023-03-29T14:13:19.200Z,15.40
2023-03-29T14:15:54.828Z,20.50
2023-03-29T14:18:25.867Z,14.00
2023-03-29T14:20:55.679Z,13.00
2023-03-29T14:23:30.705Z,11.70
2023-03-29T14:26:22.612Z,11.50
2023-03-29T14:28:56.570Z,8.60
2023-03-29T14:31:32.028Z,9.30
2023-03-29T14:34:02.326Z,10.50
2023-03-29T14:36:32.510Z,12.30
2023-03-29T14:39:16.758Z,12.30
2023-03-29T14:41:57.184Z,11.30
2023-03-29T14:44:28.858Z,15.00
2023-03-29T14:46:57.087Z,16.40
2023-03-29T14:49:25.497Z,13.80
2023-03-29T14:51:55.301Z,21.90
2023-03-29T14:54:28.937Z,24.30
2023-03-29T14:56:56.943Z,10.20
2023-03-29T14:59:48.836Z,29.40
2023-03-29T15:02:27.656Z,26.00
2023-03-29T15:05:05.130Z,30.80
2023-03-29T15:07:35.217Z,19.60
2023-03-29T15:10:06.545Z,24.60
2023-03-29T15:12:43.372Z,22.10
2023-03-29T15:15:13.285Z,24.80
2023-03-29T15:17:51.818Z,32.50
2023-03-29T15:20:31.657Z,16.70
2023-03-29T15:23:04.640Z,21.70
2023-03-29T15:25:38.594Z,15.60
2023-03-29T15:28:06.429Z,21.90
2023-03-29T15:30:39.427Z,20.10
2023-03-29T15:33:23.163Z,13.30
2023-03-29T15:35:53.123Z,16.30
2023-03-29T15:38:25.453Z,21.00
2023-03-29T15:40:58.944Z,13.70
2023-03-29T15:43:27.441Z,12.80
2023-03-29T15:45:55.249Z,20.30
2023-03-29T15:48:26.987Z,18.70
2023-03-29T15:50:55.140Z,53.90
2023-03-29T15:53:23.882Z,102.80
2023-03-29T15:55:54.695Z,26.20
2023-03-29T15:58:29.061Z,25.50
2023-03-29T16:01:11.208Z,25.40
2023-03-29T16:03:40.099Z,36.70
2023-03-29T16:06:12.046Z,25.60
2023-03-29T16:08:41.556Z,63.30
2023-03-29T16:11:09.899Z,38.90
2023-03-29T16:13:37.803Z,109.80
2023-03-29T16:16:06.857Z,27.80
2023-03-29T16:18:35.860Z,183.20
2023-03-29T16:21:04.828Z,253.00
2023-03-29T16:23:32.848Z,39.10
2023-03-29T16:26:01.033Z,389.90
2023-03-29T16:28:29.009Z,246.30
2023-03-29T16:30:56.812Z,522.40
2023-03-29T16:33:24.709Z,173.60
2023-03-29T16:35:52.585Z,802.80
2023-03-29T16:38:21.799Z,171.70
2023-03-29T16:40:50.035Z,31.40
2023-03-29T16:43:18.834Z,145.50
2023-03-29T16:45:46.856Z,49.70
2023-03-29T16:48:17.452Z,24.70
2023-03-29T16:50:49.647Z,45.70
2023-03-29T16:53:21.818Z,15.50
2023-03-29T16:55:50.650Z,42.10
2023-03-29T16:58:18.882Z,90.00
2023-03-29T17:00:48.551Z,240.00
2023-03-29T17:03:17.114Z,142.60
2023-03-29T17:05:48.878Z,57.90
2023-03-29T17:08:18.135Z,71.30
2023-03-29T17:10:47.148Z,58.00
2023-03-29T17:13:15.040Z,42.30
2023-03-29T17:15:42.962Z,51.70
2023-03-29T17:18:11.109Z,50.90
2023-03-29T17:20:40.468Z,37.80
2023-03-29T17:23:09.067Z,31.50
2023-03-29T17:25:37.556Z,48.60
2023-03-29T17:28:05.748Z,60.50
2023-03-29T17:30:35.207Z,73.50
2023-03-29T17:33:04.068Z,48.20
2023-03-29T17:35:32.421Z,86.70
2023-03-29T17:38:01.531Z,97.50
2023-03-29T17:40:29.766Z,79.70
2023-03-29T17:42:57.588Z,125.70
2023-03-29T17:45:25.815Z,79.80
2023-03-29T17:47:53.932Z,69.80
2023-03-29T17:50:21.825Z,69.60
2023-03-29T17:52:49.736Z,75.40
2023-03-29T17:55:18.067Z,64.90
2023-03-29T17:57:45.834Z,86.60
2023-03-29T18:00:14.382Z,80.10
2023-03-29T18:02:43.182Z,77.10
2023-03-29T18:05:11.788Z,76.20
2023-03-29T18:07:39.608Z,56.20
2023-03-29T18:10:08.294Z,66.50
2023-03-29T18:12:36.785Z,69.10
2023-03-29T18:15:06.412Z,56.90
2023-03-29T18:17:35.882Z,47.90
2023-03-29T18:20:10.997Z,78.70
2023-03-29T18:22:43.601Z,96.30
2023-03-29T18:25:11.431Z,84.80
2023-03-29T18:27:39.817Z,80.00
2023-03-29T18:30:08.907Z,100.60
2023-03-29T18:32:37.148Z,93.70
2023-03-29T18:35:06.302Z,482.60
2023-03-29T18:37:34.150Z,731.90
2023-03-29T18:40:02.275Z,745.40
2023-03-29T18:42:30.832Z,693.60
2023-03-29T18:44:58.777Z,375.00
2023-03-29T18:47:27.352Z,353.20
2023-03-29T18:49:55.973Z,272.10
2023-03-29T18:52:23.896Z,341.90
2023-03-29T18:54:52.009Z,393.80
2023-03-29T18:57:19.859Z,477.40
2023-03-29T18:59:47.756Z,274.10
2023-03-29T19:02:15.998Z,243.30
2023-03-29T19:04:44.276Z,216.20
2023-03-29T19:07:12.613Z,186.40
2023-03-29T19:09:41.802Z,181.70
2023-03-29T19:12:09.857Z,164.90
2023-03-29T19:14:37.728Z,191.30
2023-03-29T19:17:06.033Z,141.30
2023-03-29T19:19:33.920Z,125.80
2023-03-29T19:22:01.836Z,119.60
2023-03-29T19:24:29.996Z,98.20
2023-03-29T19:26:58.380Z,118.60
2023-03-29T19:29:26.334Z,80.00
2023-03-29T19:31:54.793Z,96.50
2023-03-29T19:34:24.415Z,112.10
2023-03-29T19:36:53.997Z,87.40
2023-03-29T19:39:22.096Z,101.80
2023-03-29T19:41:49.995Z,118.20
2023-03-29T19:44:17.886Z,104.70
2023-03-29T19:46:45.777Z,104.20
2023-03-29T19:49:14.008Z,105.70
2023-03-29T19:51:43.120Z,69.30
2023-03-29T19:54:13.353Z,127.90
2023-03-29T19:56:42.792Z,111.00
2023-03-29T19:59:11.292Z,105.50
2023-03-29T20:01:42.763Z,106.20
2023-03-29T20:04:11.894Z,84.40
2023-03-29T20:06:40.007Z,130.80
2023-03-29T20:09:08.782Z,72.00
2023-03-29T20:11:37.842Z,178.10
2023-03-29T20:14:05.700Z,270.10
2023-03-29T20:16:34.958Z,134.20
2023-03-29T20:19:04.111Z,316.70
2023-03-29T20:21:37.437Z,105.40
2023-03-29T20:24:06.112Z,110.20
2023-03-29T20:26:34.011Z,153.40
2023-03-29T20:29:02.126Z,132.70
2023-03-29T20:31:30.075Z,113.80
2023-03-29T20:33:58.043Z,72.40
2023-03-29T20:36:26.731Z,176.20
2023-03-29T20:38:56.314Z,95.20
2023-03-29T20:41:24.604Z,81.10
2023-03-29T20:43:58.506Z,63.20
2023-03-29T20:46:34.947Z,66.30
2023-03-29T20:49:05.037Z,60.40
2023-03-29T20:51:32.918Z,65.80
2023-03-29T20:54:03.869Z,83.20
2023-03-29T20:56:34.371Z,98.50
2023-03-29T20:59:04.175Z,112.70
2023-03-29T21:01:35.068Z,123.70
2023-03-29T21:04:03.112Z,132.80
2023-03-29T21:06:31.685Z,158.30
2023-03-29T21:08:59.415Z,184.90
2023-03-29T21:11:27.680Z,127.80
2023-03-29T21:13:55.550Z,289.80
2023-03-29T21:16:25.327Z,387.00
2023-03-29T21:18:53.376Z,318.90
2023-03-29T21:21:22.780Z,136.40
2023-03-29T21:23:50.889Z,183.50
2023-03-29T21:26:18.727Z,98.50
2023-03-29T21:28:48.635Z,103.70
2023-03-29T21:31:16.635Z,390.70
2023-03-29T21:33:44.623Z,289.20
2023-03-29T21:36:12.522Z,310.70
2023-03-29T21:38:40.544Z,299.80
2023-03-29T21:41:12.300Z,553.50
2023-03-29T21:43:40.497Z,407.10
2023-03-29T21:46:09.407Z,315.10
2023-03-29T21:48:37.781Z,127.60
2023-03-29T21:51:06.496Z,170.70
2023-03-29T21:53:35.069Z,110.90
2023-03-29T21:56:03.280Z,132.90
2023-03-29T21:58:31.320Z,79.70
2023-03-29T22:00:59.762Z,146.30
2023-03-29T22:03:28.384Z,109.80
2023-03-29T22:05:58.623Z,62.60
2023-03-29T22:08:27.013Z,51.00
2023-03-29T22:10:57.058Z,37.30
2023-03-29T22:13:28.300Z,30.50
2023-03-29T22:16:01.393Z,35.50
2023-03-29T22:18:42.398Z,36.50
2023-03-29T22:21:20.424Z,41.20
2023-03-29T22:23:50.638Z,42.80
2023-03-29T22:26:20.101Z,45.20
2023-03-29T22:28:47.998Z,36.00
2023-03-29T22:31:18.956Z,34.60
2023-03-29T22:33:47.577Z,31.30
2023-03-29T22:36:26.753Z,35.30
2023-03-29T22:38:55.100Z,35.20
2023-03-29T22:41:24.892Z,31.70
2023-03-29T22:43:54.838Z,41.00
2023-03-29T22:46:23.597Z,49.30
2023-03-29T22:48:52.400Z,32.80
2023-03-29T22:51:20.907Z,26.20
2023-03-29T22:53:48.934Z,24.30
2023-03-29T22:56:17.893Z,44.60
2023-03-29T22:58:46.127Z,27.70
2023-03-29T23:01:14.050Z,20.00
2023-03-29T23:03:41.965Z,21.10
2023-03-29T23:06:09.909Z,18.70
2023-03-29T23:08:38.109Z,21.00
2023-03-29T23:11:07.563Z,23.50
2023-03-29T23:13:35.786Z,20.00
2023-03-29T23:16:04.990Z,20.20
2023-03-29T23:18:35.010Z,22.30
2023-03-29T23:21:06.140Z,26.00
2023-03-29T23:23:35.700Z,23.60
2023-03-29T23:26:04.445Z,20.80
2023-03-29T23:28:34.820Z,23.00
2023-03-29T23:31:09.780Z,22.50
2023-03-29T23:33:42.770Z,22.10
2023-03-29T23:36:14.206Z,20.80
2023-03-29T23:38:44.892Z,22.00
2023-03-29T23:41:13.392Z,20.90
2023-03-29T23:43:43.910Z,19.80
2023-03-29T23:46:17.412Z,23.60
2023-03-29T23:48:46.616Z,21.90
2023-03-29T23:51:18.230Z,20.40
2023-03-29T23:53:46.723Z,22.50
2023-03-29T23:56:14.794Z,20.40
2023-03-29T23:58:42.800Z,20.40
